sensor_id;sensor_type;location;lat;lon;timestamp;temperature;humidity
46932;DHT22;32670;51.464;11.964;2022-07-11T00:02:06;24.60;46.40
46932;DHT22;32670;51.464;11.964;2022-07-11T00:04:33;24.60;46.40
46932;DHT22;32670;51.464;11.964;2022-07-11T00:06:59;24.50;46.30
46932;DHT22;32670;51.464;11.964;2022-07-11T00:09:25;24.60;46.40
46932;DHT22;32670;51.464;11.964;2022-07-11T00:11:50;24.60;46.50
46932;DHT22;32670;51.464;11.964;2022-07-11T00:14:17;24.60;46.50
46932;DHT22;32670;51.464;11.964;2022-07-11T00:16:43;24.50;46.50
46932;DHT22;32670;51.464;11.964;2022-07-11T00:19:09;24.60;46.50
46932;DHT22;32670;51.464;11.964;2022-07-11T00:21:35;24.60;46.50
46932;DHT22;32670;51.464;11.964;2022-07-11T00:24:04;24.60;46.50
46932;DHT22;32670;51.464;11.964;2022-07-11T00:26:30;24.60;46.60
46932;DHT22;32670;51.464;11.964;2022-07-11T00:28:55;24.50;46.50
46932;DHT22;32670;51.464;11.964;2022-07-11T00:31:21;24.60;46.60
46932;DHT22;32670;51.464;11.964;2022-07-11T00:33:46;24.50;46.50
46932;DHT22;32670;51.464;11.964;2022-07-11T00:36:12;24.50;46.50
46932;DHT22;32670;51.464;11.964;2022-07-11T00:38:38;24.50;46.50
46932;DHT22;32670;51.464;11.964;2022-07-11T00:41:04;24.60;46.50
46932;DHT22;32670;51.464;11.964;2022-07-11T00:43:31;24.50;46.50
46932;DHT22;32670;51.464;11.964;2022-07-11T00:45:56;24.50;46.50
46932;DHT22;32670;51.464;11.964;2022-07-11T00:48:22;24.50;46.60
46932;DHT22;32670;51.464;11.964;2022-07-11T00:50:47;24.60;46.70
46932;DHT22;32670;51.464;11.964;2022-07-11T00:53:13;24.50;46.60
46932;DHT22;32670;51.464;11.964;2022-07-11T00:55:40;24.50;46.60
46932;DHT22;32670;51.464;11.964;2022-07-11T00:58:06;24.50;46.60
46932;DHT22;32670;51.464;11.964;2022-07-11T01:00:31;24.50;46.60
46932;DHT22;32670;51.464;11.964;2022-07-11T01:02:57;24.50;46.60
46932;DHT22;32670;51.464;11.964;2022-07-11T01:05:23;24.50;46.60
46932;DHT22;32670;51.464;11.964;2022-07-11T01:07:48;24.60;46.70
46932;DHT22;32670;51.464;11.964;2022-07-11T01:10:14;24.50;46.60
46932;DHT22;32670;51.464;11.964;2022-07-11T01:12:39;24.50;46.60
46932;DHT22;32670;51.464;11.964;2022-07-11T01:15:05;24.50;46.70
46932;DHT22;32670;51.464;11.964;2022-07-11T01:17:33;24.50;46.60
46932;DHT22;32670;51.464;11.964;2022-07-11T01:19:58;24.50;46.70
46932;DHT22;32670;51.464;11.964;2022-07-11T01:22:24;24.50;46.70
46932;DHT22;32670;51.464;11.964;2022-07-11T01:24:50;24.50;46.70
46932;DHT22;32670;51.464;11.964;2022-07-11T01:27:15;24.50;46.70
46932;DHT22;32670;51.464;11.964;2022-07-11T01:29:41;24.50;46.70
46932;DHT22;32670;51.464;11.964;2022-07-11T01:32:07;24.50;46.80
46932;DHT22;32670;51.464;11.964;2022-07-11T01:34:33;24.50;46.70
46932;DHT22;32670;51.464;11.964;2022-07-11T01:36:59;24.50;46.80
46932;DHT22;32670;51.464;11.964;2022-07-11T01:39:24;24.50;46.70
46932;DHT22;32670;51.464;11.964;2022-07-11T01:41:50;24.50;46.70
46932;DHT22;32670;51.464;11.964;2022-07-11T01:44:15;24.50;46.70
46932;DHT22;32670;51.464;11.964;2022-07-11T01:46:41;24.50;46.80
46932;DHT22;32670;51.464;11.964;2022-07-11T01:49:06;24.50;46.80
46932;DHT22;32670;51.464;11.964;2022-07-11T01:51:33;24.50;47.00
46932;DHT22;32670;51.464;11.964;2022-07-11T01:53:59;24.40;46.80
46932;DHT22;32670;51.464;11.964;2022-07-11T01:56:24;24.40;46.70
46932;DHT22;32670;51.464;11.964;2022-07-11T01:58:52;24.50;46.80
46932;DHT22;32670;51.464;11.964;2022-07-11T02:01:18;24.50;46.80
46932;DHT22;32670;51.464;11.964;2022-07-11T02:03:43;24.40;46.90
46932;DHT22;32670;51.464;11.964;2022-07-11T02:06:09;24.50;46.90
46932;DHT22;32670;51.464;11.964;2022-07-11T02:08:34;24.50;46.90
46932;DHT22;32670;51.464;11.964;2022-07-11T02:11:00;24.50;46.90
46932;DHT22;32670;51.464;11.964;2022-07-11T02:13:25;24.50;46.90
46932;DHT22;32670;51.464;11.964;2022-07-11T02:15:51;24.50;46.90
46932;DHT22;32670;51.464;11.964;2022-07-11T02:18:19;24.50;47.00
46932;DHT22;32670;51.464;11.964;2022-07-11T02:20:45;24.40;46.90
46932;DHT22;32670;51.464;11.964;2022-07-11T02:23:11;24.40;46.90
46932;DHT22;32670;51.464;11.964;2022-07-11T02:25:37;24.50;47.00
46932;DHT22;32670;51.464;11.964;2022-07-11T02:28:09;24.40;46.90
46932;DHT22;32670;51.464;11.964;2022-07-11T02:30:36;24.40;46.90
46932;DHT22;32670;51.464;11.964;2022-07-11T02:33:01;24.50;47.00
46932;DHT22;32670;51.464;11.964;2022-07-11T02:35:27;24.40;46.90
46932;DHT22;32670;51.464;11.964;2022-07-11T02:37:53;24.50;47.00
46932;DHT22;32670;51.464;11.964;2022-07-11T02:40:18;24.40;46.90
46932;DHT22;32670;51.464;11.964;2022-07-11T02:42:44;24.40;47.00
46932;DHT22;32670;51.464;11.964;2022-07-11T02:45:10;24.40;46.90
46932;DHT22;32670;51.464;11.964;2022-07-11T02:47:37;24.40;46.90
46932;DHT22;32670;51.464;11.964;2022-07-11T02:50:04;24.40;47.00
46932;DHT22;32670;51.464;11.964;2022-07-11T02:52:29;24.40;47.00
46932;DHT22;32670;51.464;11.964;2022-07-11T02:54:55;24.40;47.00
46932;DHT22;32670;51.464;11.964;2022-07-11T02:57:20;24.40;47.00
46932;DHT22;32670;51.464;11.964;2022-07-11T02:59:46;24.40;47.00
46932;DHT22;32670;51.464;11.964;2022-07-11T03:02:11;24.40;47.00
46932;DHT22;32670;51.464;11.964;2022-07-11T03:04:37;24.40;47.00
46932;DHT22;32670;51.464;11.964;2022-07-11T03:07:02;24.40;47.00
46932;DHT22;32670;51.464;11.964;2022-07-11T03:09:28;24.40;47.10
46932;DHT22;32670;51.464;11.964;2022-07-11T03:11:53;24.40;47.00
46932;DHT22;32670;51.464;11.964;2022-07-11T03:14:19;24.40;47.10
46932;DHT22;32670;51.464;11.964;2022-07-11T03:16:44;24.40;45.90
46932;DHT22;32670;51.464;11.964;2022-07-11T03:19:10;24.40;45.30
46932;DHT22;32670;51.464;11.964;2022-07-11T03:21:35;24.30;44.80
46932;DHT22;32670;51.464;11.964;2022-07-11T03:24:01;24.20;44.90
46932;DHT22;32670;51.464;11.964;2022-07-11T03:26:26;24.10;44.20
46932;DHT22;32670;51.464;11.964;2022-07-11T03:28:52;24.00;44.50
46932;DHT22;32670;51.464;11.964;2022-07-11T03:31:17;24.00;43.90
46932;DHT22;32670;51.464;11.964;2022-07-11T03:33:44;24.00;43.80
46932;DHT22;32670;51.464;11.964;2022-07-11T03:36:09;23.90;43.70
46932;DHT22;32670;51.464;11.964;2022-07-11T03:38:35;23.90;43.80
46932;DHT22;32670;51.464;11.964;2022-07-11T03:41:00;23.80;43.80
46932;DHT22;32670;51.464;11.964;2022-07-11T03:43:26;23.80;43.80
46932;DHT22;32670;51.464;11.964;2022-07-11T03:45:51;23.70;43.70
46932;DHT22;32670;51.464;11.964;2022-07-11T03:48:17;23.70;43.70
46932;DHT22;32670;51.464;11.964;2022-07-11T03:50:42;23.60;43.80
46932;DHT22;32670;51.464;11.964;2022-07-11T03:53:07;23.60;43.90
46932;DHT22;32670;51.464;11.964;2022-07-11T03:55:33;23.60;44.00
46932;DHT22;32670;51.464;11.964;2022-07-11T03:57:59;23.50;44.10
46932;DHT22;32670;51.464;11.964;2022-07-11T04:00:25;23.50;44.20
46932;DHT22;32670;51.464;11.964;2022-07-11T04:02:50;23.40;44.20
46932;DHT22;32670;51.464;11.964;2022-07-11T04:05:16;23.30;44.40
46932;DHT22;32670;51.464;11.964;2022-07-11T04:07:41;23.30;44.40
46932;DHT22;32670;51.464;11.964;2022-07-11T04:10:08;23.30;44.50
46932;DHT22;32670;51.464;11.964;2022-07-11T04:12:34;23.20;44.50
46932;DHT22;32670;51.464;11.964;2022-07-11T04:14:59;23.20;44.60
46932;DHT22;32670;51.464;11.964;2022-07-11T04:17:25;23.20;44.70
46932;DHT22;32670;51.464;11.964;2022-07-11T04:19:52;23.20;44.80
46932;DHT22;32670;51.464;11.964;2022-07-11T04:22:17;23.10;44.80
46932;DHT22;32670;51.464;11.964;2022-07-11T04:24:43;23.10;44.90
46932;DHT22;32670;51.464;11.964;2022-07-11T04:27:08;23.00;44.90
46932;DHT22;32670;51.464;11.964;2022-07-11T04:29:34;23.00;45.00
46932;DHT22;32670;51.464;11.964;2022-07-11T04:31:59;23.00;45.00
46932;DHT22;32670;51.464;11.964;2022-07-11T04:34:25;23.00;45.10
46932;DHT22;32670;51.464;11.964;2022-07-11T04:36:50;23.00;45.20
46932;DHT22;32670;51.464;11.964;2022-07-11T04:39:15;22.90;45.20
46932;DHT22;32670;51.464;11.964;2022-07-11T04:41:41;23.00;45.40
46932;DHT22;32670;51.464;11.964;2022-07-11T04:44:06;23.00;45.50
46932;DHT22;32670;51.464;11.964;2022-07-11T04:46:32;23.00;45.60
46932;DHT22;32670;51.464;11.964;2022-07-11T04:48:58;23.00;45.80
46932;DHT22;32670;51.464;11.964;2022-07-11T04:51:24;23.00;45.80
46932;DHT22;32670;51.464;11.964;2022-07-11T04:53:50;23.00;45.90
46932;DHT22;32670;51.464;11.964;2022-07-11T04:56:16;23.00;46.00
46932;DHT22;32670;51.464;11.964;2022-07-11T04:58:42;23.00;46.10
46932;DHT22;32670;51.464;11.964;2022-07-11T05:01:07;23.00;46.20
46932;DHT22;32670;51.464;11.964;2022-07-11T05:03:33;22.90;46.20
46932;DHT22;32670;51.464;11.964;2022-07-11T05:05:58;23.00;46.30
46932;DHT22;32670;51.464;11.964;2022-07-11T05:08:24;23.00;46.40
46932;DHT22;32670;51.464;11.964;2022-07-11T05:10:49;23.00;46.50
46932;DHT22;32670;51.464;11.964;2022-07-11T05:13:15;23.00;46.60
46932;DHT22;32670;51.464;11.964;2022-07-11T05:15:41;23.00;46.70
46932;DHT22;32670;51.464;11.964;2022-07-11T05:18:06;23.00;46.70
46932;DHT22;32670;51.464;11.964;2022-07-11T05:20:32;22.90;46.80
46932;DHT22;32670;51.464;11.964;2022-07-11T05:22:58;22.90;47.00
46932;DHT22;32670;51.464;11.964;2022-07-11T05:25:24;22.90;47.00
46932;DHT22;32670;51.464;11.964;2022-07-11T05:27:50;22.90;47.20
46932;DHT22;32670;51.464;11.964;2022-07-11T05:30:16;22.90;47.50
46932;DHT22;32670;51.464;11.964;2022-07-11T05:32:42;22.90;48.30
46932;DHT22;32670;51.464;11.964;2022-07-11T05:35:08;22.90;47.80
46932;DHT22;32670;51.464;11.964;2022-07-11T05:37:33;22.80;48.10
46932;DHT22;32670;51.464;11.964;2022-07-11T05:39:59;22.70;48.30
46932;DHT22;32670;51.464;11.964;2022-07-11T05:42:24;22.70;48.40
46932;DHT22;32670;51.464;11.964;2022-07-11T05:44:49;22.80;48.60
46932;DHT22;32670;51.464;11.964;2022-07-11T05:47:15;22.90;48.80
46932;DHT22;32670;51.464;11.964;2022-07-11T05:49:41;23.00;48.70
46932;DHT22;32670;51.464;11.964;2022-07-11T05:52:06;23.10;48.70
46932;DHT22;32670;51.464;11.964;2022-07-11T05:54:32;23.20;48.60
46932;DHT22;32670;51.464;11.964;2022-07-11T05:56:57;23.20;48.70
46932;DHT22;32670;51.464;11.964;2022-07-11T05:59:23;23.30;48.40
46932;DHT22;32670;51.464;11.964;2022-07-11T06:01:48;23.30;48.20
46932;DHT22;32670;51.464;11.964;2022-07-11T06:04:14;23.40;48.20
46932;DHT22;32670;51.464;11.964;2022-07-11T06:06:40;23.40;48.10
46932;DHT22;32670;51.464;11.964;2022-07-11T06:09:06;23.40;48.20
46932;DHT22;32670;51.464;11.964;2022-07-11T06:11:31;23.50;48.00
46932;DHT22;32670;51.464;11.964;2022-07-11T06:13:57;23.50;48.20
46932;DHT22;32670;51.464;11.964;2022-07-11T06:16:23;23.60;48.50
46932;DHT22;32670;51.464;11.964;2022-07-11T06:18:49;23.60;48.60
46932;DHT22;32670;51.464;11.964;2022-07-11T06:21:16;23.60;48.50
46932;DHT22;32670;51.464;11.964;2022-07-11T06:23:42;23.60;48.70
46932;DHT22;32670;51.464;11.964;2022-07-11T06:26:08;23.60;48.90
46932;DHT22;32670;51.464;11.964;2022-07-11T06:28:33;23.70;49.10
46932;DHT22;32670;51.464;11.964;2022-07-11T06:30:59;23.70;49.10
46932;DHT22;32670;51.464;11.964;2022-07-11T06:33:25;23.70;49.00
46932;DHT22;32670;51.464;11.964;2022-07-11T06:35:50;23.70;49.10
46932;DHT22;32670;51.464;11.964;2022-07-11T06:38:16;23.70;48.90
46932;DHT22;32670;51.464;11.964;2022-07-11T06:40:42;23.70;49.20
46932;DHT22;32670;51.464;11.964;2022-07-11T06:43:09;23.70;49.30
46932;DHT22;32670;51.464;11.964;2022-07-11T06:45:35;23.70;49.10
46932;DHT22;32670;51.464;11.964;2022-07-11T06:48:01;23.70;49.20
46932;DHT22;32670;51.464;11.964;2022-07-11T06:50:26;23.70;49.20
46932;DHT22;32670;51.464;11.964;2022-07-11T06:52:52;23.70;49.10
46932;DHT22;32670;51.464;11.964;2022-07-11T06:55:17;23.70;48.80
46932;DHT22;32670;51.464;11.964;2022-07-11T06:57:43;23.70;49.10
46932;DHT22;32670;51.464;11.964;2022-07-11T07:00:09;23.70;48.70
46932;DHT22;32670;51.464;11.964;2022-07-11T07:02:35;23.70;47.70
46932;DHT22;32670;51.464;11.964;2022-07-11T07:05:01;23.60;47.30
46932;DHT22;32670;51.464;11.964;2022-07-11T07:07:27;23.60;46.10
46932;DHT22;32670;51.464;11.964;2022-07-11T07:09:53;23.60;46.00
46932;DHT22;32670;51.464;11.964;2022-07-11T07:12:22;23.50;46.40
46932;DHT22;32670;51.464;11.964;2022-07-11T07:14:48;23.50;46.40
46932;DHT22;32670;51.464;11.964;2022-07-11T07:17:14;23.50;46.50
46932;DHT22;32670;51.464;11.964;2022-07-11T07:19:40;23.50;46.40
46932;DHT22;32670;51.464;11.964;2022-07-11T07:22:05;23.50;45.60
46932;DHT22;32670;51.464;11.964;2022-07-11T07:24:34;23.40;45.80
46932;DHT22;32670;51.464;11.964;2022-07-11T07:27:04;23.50;46.00
46932;DHT22;32670;51.464;11.964;2022-07-11T07:29:29;23.50;45.50
46932;DHT22;32670;51.464;11.964;2022-07-11T07:31:56;23.50;45.60
46932;DHT22;32670;51.464;11.964;2022-07-11T07:34:21;23.50;45.50
46932;DHT22;32670;51.464;11.964;2022-07-11T07:36:47;23.50;45.30
46932;DHT22;32670;51.464;11.964;2022-07-11T07:39:12;23.40;45.00
46932;DHT22;32670;51.464;11.964;2022-07-11T07:41:38;23.50;45.10
46932;DHT22;32670;51.464;11.964;2022-07-11T07:44:04;23.40;44.90
46932;DHT22;32670;51.464;11.964;2022-07-11T07:46:29;23.40;45.10
46932;DHT22;32670;51.464;11.964;2022-07-11T07:48:55;23.40;45.20
46932;DHT22;32670;51.464;11.964;2022-07-11T07:51:20;23.40;45.20
46932;DHT22;32670;51.464;11.964;2022-07-11T07:53:49;23.40;45.20
46932;DHT22;32670;51.464;11.964;2022-07-11T07:56:14;23.40;44.40
46932;DHT22;32670;51.464;11.964;2022-07-11T07:58:40;23.30;44.80
46932;DHT22;32670;51.464;11.964;2022-07-11T08:01:06;23.40;44.80
46932;DHT22;32670;51.464;11.964;2022-07-11T08:03:50;23.30;44.80
46932;DHT22;32670;51.464;11.964;2022-07-11T08:06:16;23.40;45.00
46932;DHT22;32670;51.464;11.964;2022-07-11T08:08:41;23.40;44.70
46932;DHT22;32670;51.464;11.964;2022-07-11T08:11:07;23.40;44.60
46932;DHT22;32670;51.464;11.964;2022-07-11T08:13:33;23.40;44.20
46932;DHT22;32670;51.464;11.964;2022-07-11T08:15:58;23.40;44.00
46932;DHT22;32670;51.464;11.964;2022-07-11T08:18:24;23.40;43.80
46932;DHT22;32670;51.464;11.964;2022-07-11T08:20:49;23.40;44.10
46932;DHT22;32670;51.464;11.964;2022-07-11T08:23:14;23.40;44.40
46932;DHT22;32670;51.464;11.964;2022-07-11T08:25:40;23.40;44.40
46932;DHT22;32670;51.464;11.964;2022-07-11T08:28:06;23.50;44.50
46932;DHT22;32670;51.464;11.964;2022-07-11T08:30:32;23.40;43.90
46932;DHT22;32670;51.464;11.964;2022-07-11T08:32:57;23.40;44.20
46932;DHT22;32670;51.464;11.964;2022-07-11T08:35:23;23.40;44.20
46932;DHT22;32670;51.464;11.964;2022-07-11T08:37:49;23.50;44.40
46932;DHT22;32670;51.464;11.964;2022-07-11T08:40:14;23.50;44.20
46932;DHT22;32670;51.464;11.964;2022-07-11T08:42:42;23.60;43.70
46932;DHT22;32670;51.464;11.964;2022-07-11T08:45:11;23.60;43.60
46932;DHT22;32670;51.464;11.964;2022-07-11T08:47:37;23.60;43.30
46932;DHT22;32670;51.464;11.964;2022-07-11T08:50:03;23.60;43.30
46932;DHT22;32670;51.464;11.964;2022-07-11T08:52:29;23.60;43.30
46932;DHT22;32670;51.464;11.964;2022-07-11T08:54:56;23.60;43.00
46932;DHT22;32670;51.464;11.964;2022-07-11T08:57:22;23.60;43.40
46932;DHT22;32670;51.464;11.964;2022-07-11T08:59:48;23.60;43.50
46932;DHT22;32670;51.464;11.964;2022-07-11T09:02:16;23.60;42.50
46932;DHT22;32670;51.464;11.964;2022-07-11T09:04:42;23.60;42.50
46932;DHT22;32670;51.464;11.964;2022-07-11T09:07:08;23.60;42.70
46932;DHT22;32670;51.464;11.964;2022-07-11T09:09:33;23.50;42.90
46932;DHT22;32670;51.464;11.964;2022-07-11T09:11:59;23.60;43.30
46932;DHT22;32670;51.464;11.964;2022-07-11T09:14:29;23.60;43.20
46932;DHT22;32670;51.464;11.964;2022-07-11T09:16:59;23.60;43.20
46932;DHT22;32670;51.464;11.964;2022-07-11T09:19:27;23.60;42.90
46932;DHT22;32670;51.464;11.964;2022-07-11T09:22:13;23.60;42.80
46932;DHT22;32670;51.464;11.964;2022-07-11T09:27:50;23.70;42.80
46932;DHT22;32670;51.464;11.964;2022-07-11T09:30:30;23.70;42.90
46932;DHT22;32670;51.464;11.964;2022-07-11T09:33:07;23.70;42.50
46932;DHT22;32670;51.464;11.964;2022-07-11T09:35:35;23.70;42.10
46932;DHT22;32670;51.464;11.964;2022-07-11T09:38:08;23.70;42.20
46932;DHT22;32670;51.464;11.964;2022-07-11T09:40:35;23.80;42.70
46932;DHT22;32670;51.464;11.964;2022-07-11T09:43:02;23.80;43.30
46932;DHT22;32670;51.464;11.964;2022-07-11T09:45:33;23.80;43.20
46932;DHT22;32670;51.464;11.964;2022-07-11T09:48:00;23.80;43.40
46932;DHT22;32670;51.464;11.964;2022-07-11T09:50:30;23.40;38.20
46932;DHT22;32670;51.464;11.964;2022-07-11T09:55:26;23.50;40.10
46932;DHT22;32670;51.464;11.964;2022-07-11T09:57:52;23.50;41.00
46932;DHT22;32670;51.464;11.964;2022-07-11T10:00:17;23.60;41.20
46932;DHT22;32670;51.464;11.964;2022-07-11T10:02:43;23.60;41.40
46932;DHT22;32670;51.464;11.964;2022-07-11T10:05:09;23.70;41.50
46932;DHT22;32670;51.464;11.964;2022-07-11T10:07:34;23.80;42.00
46932;DHT22;32670;51.464;11.964;2022-07-11T10:10:02;23.80;42.10
46932;DHT22;32670;51.464;11.964;2022-07-11T10:12:28;23.90;42.30
46932;DHT22;32670;51.464;11.964;2022-07-11T10:14:56;23.90;42.30
46932;DHT22;32670;51.464;11.964;2022-07-11T10:17:42;23.90;42.30
46932;DHT22;32670;51.464;11.964;2022-07-11T10:20:15;23.90;42.60
46932;DHT22;32670;51.464;11.964;2022-07-11T10:23:22;24.00;42.70
46932;DHT22;32670;51.464;11.964;2022-07-11T10:26:01;24.00;42.70
46932;DHT22;32670;51.464;11.964;2022-07-11T10:31:02;24.00;43.20
46932;DHT22;32670;51.464;11.964;2022-07-11T10:33:29;24.00;43.10
46932;DHT22;32670;51.464;11.964;2022-07-11T10:35:55;24.10;43.00
46932;DHT22;32670;51.464;11.964;2022-07-11T10:38:22;24.10;43.20
46932;DHT22;32670;51.464;11.964;2022-07-11T10:40:56;24.10;43.10
46932;DHT22;32670;51.464;11.964;2022-07-11T10:45:59;24.20;43.30
46932;DHT22;32670;51.464;11.964;2022-07-11T10:48:26;24.10;43.10
46932;DHT22;32670;51.464;11.964;2022-07-11T10:53:32;24.20;43.30
46932;DHT22;32670;51.464;11.964;2022-07-11T10:56:09;24.20;43.60
46932;DHT22;32670;51.464;11.964;2022-07-11T10:58:41;24.20;43.70
46932;DHT22;32670;51.464;11.964;2022-07-11T11:01:15;24.20;43.60
46932;DHT22;32670;51.464;11.964;2022-07-11T11:03:44;24.20;43.70
46932;DHT22;32670;51.464;11.964;2022-07-11T11:06:10;24.20;43.70
46932;DHT22;32670;51.464;11.964;2022-07-11T11:08:39;24.20;43.50
46932;DHT22;32670;51.464;11.964;2022-07-11T11:11:49;24.30;43.50
46932;DHT22;32670;51.464;11.964;2022-07-11T11:16:41;24.30;43.50
46932;DHT22;32670;51.464;11.964;2022-07-11T11:19:06;24.30;43.50
46932;DHT22;32670;51.464;11.964;2022-07-11T11:21:32;24.30;43.50
46932;DHT22;32670;51.464;11.964;2022-07-11T11:26:50;24.30;43.60
46932;DHT22;32670;51.464;11.964;2022-07-11T11:29:18;24.30;43.60
46932;DHT22;32670;51.464;11.964;2022-07-11T11:31:49;24.30;43.70
46932;DHT22;32670;51.464;11.964;2022-07-11T11:34:15;24.30;43.60
46932;DHT22;32670;51.464;11.964;2022-07-11T11:36:40;24.40;43.50
46932;DHT22;32670;51.464;11.964;2022-07-11T11:39:06;24.30;43.60
46932;DHT22;32670;51.464;11.964;2022-07-11T11:41:32;24.40;43.60
46932;DHT22;32670;51.464;11.964;2022-07-11T11:44:00;24.40;43.70
46932;DHT22;32670;51.464;11.964;2022-07-11T11:46:32;24.40;43.60
46932;DHT22;32670;51.464;11.964;2022-07-11T11:49:00;24.40;43.70
46932;DHT22;32670;51.464;11.964;2022-07-11T11:51:30;24.40;43.70
46932;DHT22;32670;51.464;11.964;2022-07-11T11:54:03;24.40;43.60
46932;DHT22;32670;51.464;11.964;2022-07-11T11:56:31;24.40;43.50
46932;DHT22;32670;51.464;11.964;2022-07-11T11:59:06;24.40;43.40
46932;DHT22;32670;51.464;11.964;2022-07-11T12:01:35;24.40;43.20
46932;DHT22;32670;51.464;11.964;2022-07-11T12:04:02;24.40;43.40
46932;DHT22;32670;51.464;11.964;2022-07-11T12:06:34;24.40;43.30
46932;DHT22;32670;51.464;11.964;2022-07-11T12:09:01;24.40;44.00
46932;DHT22;32670;51.464;11.964;2022-07-11T12:11:27;24.40;43.90
46932;DHT22;32670;51.464;11.964;2022-07-11T12:13:57;24.40;42.70
46932;DHT22;32670;51.464;11.964;2022-07-11T12:16:23;24.40;41.80
46932;DHT22;32670;51.464;11.964;2022-07-11T12:19:17;24.50;42.50
46932;DHT22;32670;51.464;11.964;2022-07-11T12:21:46;24.50;43.00
46932;DHT22;32670;51.464;11.964;2022-07-11T12:24:16;24.50;43.30
46932;DHT22;32670;51.464;11.964;2022-07-11T12:26:42;24.50;43.50
46932;DHT22;32670;51.464;11.964;2022-07-11T12:29:16;24.50;43.70
46932;DHT22;32670;51.464;11.964;2022-07-11T12:31:49;24.60;43.70
46932;DHT22;32670;51.464;11.964;2022-07-11T12:34:58;24.50;43.70
46932;DHT22;32670;51.464;11.964;2022-07-11T12:37:10;24.50;43.60
46932;DHT22;32670;51.464;11.964;2022-07-11T12:39:38;24.50;43.60
46932;DHT22;32670;51.464;11.964;2022-07-11T12:42:22;24.50;44.00
46932;DHT22;32670;51.464;11.964;2022-07-11T12:44:59;24.60;44.00
46932;DHT22;32670;51.464;11.964;2022-07-11T12:47:27;24.50;43.60
46932;DHT22;32670;51.464;11.964;2022-07-11T12:49:54;24.50;43.70
46932;DHT22;32670;51.464;11.964;2022-07-11T12:52:19;24.50;43.50
46932;DHT22;32670;51.464;11.964;2022-07-11T12:54:45;24.50;43.40
46932;DHT22;32670;51.464;11.964;2022-07-11T12:57:15;24.60;43.50
46932;DHT22;32670;51.464;11.964;2022-07-11T12:59:41;24.60;43.50
46932;DHT22;32670;51.464;11.964;2022-07-11T13:02:09;24.60;42.90
46932;DHT22;32670;51.464;11.964;2022-07-11T13:04:39;24.60;43.40
46932;DHT22;32670;51.464;11.964;2022-07-11T13:07:38;24.60;43.20
46932;DHT22;32670;51.464;11.964;2022-07-11T13:10:24;24.60;43.00
46932;DHT22;32670;51.464;11.964;2022-07-11T13:12:54;24.60;43.00
46932;DHT22;32670;51.464;11.964;2022-07-11T13:15:21;24.60;43.10
46932;DHT22;32670;51.464;11.964;2022-07-11T13:17:50;24.60;42.80
46932;DHT22;32670;51.464;11.964;2022-07-11T13:20:17;24.60;43.00
46932;DHT22;32670;51.464;11.964;2022-07-11T13:22:45;24.60;43.10
46932;DHT22;32670;51.464;11.964;2022-07-11T13:25:12;24.60;42.80
46932;DHT22;32670;51.464;11.964;2022-07-11T13:27:43;24.60;42.90
46932;DHT22;32670;51.464;11.964;2022-07-11T13:30:13;24.60;43.00
46932;DHT22;32670;51.464;11.964;2022-07-11T13:32:43;24.60;42.70
46932;DHT22;32670;51.464;11.964;2022-07-11T13:35:08;24.60;42.90
46932;DHT22;32670;51.464;11.964;2022-07-11T13:37:34;24.70;42.80
46932;DHT22;32670;51.464;11.964;2022-07-11T13:40:05;24.70;42.90
46932;DHT22;32670;51.464;11.964;2022-07-11T13:42:31;24.70;42.80
46932;DHT22;32670;51.464;11.964;2022-07-11T13:44:59;24.70;42.80
46932;DHT22;32670;51.464;11.964;2022-07-11T13:47:25;24.70;42.60
46932;DHT22;32670;51.464;11.964;2022-07-11T13:49:50;24.70;42.40
46932;DHT22;32670;51.464;11.964;2022-07-11T13:52:16;24.70;42.50
46932;DHT22;32670;51.464;11.964;2022-07-11T13:54:41;24.70;42.40
46932;DHT22;32670;51.464;11.964;2022-07-11T13:57:07;24.70;42.30
46932;DHT22;32670;51.464;11.964;2022-07-11T13:59:32;24.70;42.30
46932;DHT22;32670;51.464;11.964;2022-07-11T14:01:58;24.70;42.30
46932;DHT22;32670;51.464;11.964;2022-07-11T14:04:23;24.70;42.30
46932;DHT22;32670;51.464;11.964;2022-07-11T14:06:49;24.70;42.20
46932;DHT22;32670;51.464;11.964;2022-07-11T14:09:14;24.80;43.10
46932;DHT22;32670;51.464;11.964;2022-07-11T14:11:40;24.70;42.90
46932;DHT22;32670;51.464;11.964;2022-07-11T14:14:06;24.80;42.60
46932;DHT22;32670;51.464;11.964;2022-07-11T14:16:31;24.80;42.20
46932;DHT22;32670;51.464;11.964;2022-07-11T14:18:57;24.80;42.40
46932;DHT22;32670;51.464;11.964;2022-07-11T14:21:26;24.80;42.50
46932;DHT22;32670;51.464;11.964;2022-07-11T14:23:51;24.80;42.70
46932;DHT22;32670;51.464;11.964;2022-07-11T14:26:17;24.80;42.70
46932;DHT22;32670;51.464;11.964;2022-07-11T14:28:42;24.80;42.60
46932;DHT22;32670;51.464;11.964;2022-07-11T14:31:08;24.80;42.70
46932;DHT22;32670;51.464;11.964;2022-07-11T14:33:33;24.80;42.60
46932;DHT22;32670;51.464;11.964;2022-07-11T14:35:59;24.80;42.70
46932;DHT22;32670;51.464;11.964;2022-07-11T14:38:24;24.80;42.90
46932;DHT22;32670;51.464;11.964;2022-07-11T14:40:50;24.80;43.00
46932;DHT22;32670;51.464;11.964;2022-07-11T14:43:15;24.80;43.20
46932;DHT22;32670;51.464;11.964;2022-07-11T14:45:41;24.80;42.90
46932;DHT22;32670;51.464;11.964;2022-07-11T14:48:06;24.80;42.80
46932;DHT22;32670;51.464;11.964;2022-07-11T14:50:32;24.90;42.70
46932;DHT22;32670;51.464;11.964;2022-07-11T14:52:59;24.80;42.50
46932;DHT22;32670;51.464;11.964;2022-07-11T14:55:25;24.80;42.60
46932;DHT22;32670;51.464;11.964;2022-07-11T14:57:50;24.80;42.60
46932;DHT22;32670;51.464;11.964;2022-07-11T15:00:15;24.80;42.80
46932;DHT22;32670;51.464;11.964;2022-07-11T15:02:44;24.80;42.60
46932;DHT22;32670;51.464;11.964;2022-07-11T15:05:29;24.80;42.50
46932;DHT22;32670;51.464;11.964;2022-07-11T15:07:54;24.80;42.70
46932;DHT22;32670;51.464;11.964;2022-07-11T15:10:38;24.90;43.00
46932;DHT22;32670;51.464;11.964;2022-07-11T15:13:22;24.80;42.70
46932;DHT22;32670;51.464;11.964;2022-07-11T15:15:48;24.80;42.70
46932;DHT22;32670;51.464;11.964;2022-07-11T15:18:14;24.80;42.60
46932;DHT22;32670;51.464;11.964;2022-07-11T15:20:40;24.90;42.60
46932;DHT22;32670;51.464;11.964;2022-07-11T15:23:05;24.90;42.50
46932;DHT22;32670;51.464;11.964;2022-07-11T15:25:31;24.90;42.50
46932;DHT22;32670;51.464;11.964;2022-07-11T15:27:57;24.80;42.40
46932;DHT22;32670;51.464;11.964;2022-07-11T15:30:23;24.80;42.60
46932;DHT22;32670;51.464;11.964;2022-07-11T15:32:48;24.80;43.40
46932;DHT22;32670;51.464;11.964;2022-07-11T15:35:14;24.80;43.40